Estación de Olivar Alto

Ultimos registro cada 15 minutos 70
Estación Fecha / Hora Temperatura Humedad Lluvia Velocidad Dirección Radiación Presion
70 Olivar Alto 05-05-2026 17:15 16,8 68 0 0 233 19 1014,4
69 Olivar Alto 05-05-2026 17:00 17,2 67 0 0 233 46 1014,3
68 Olivar Alto 05-05-2026 16:45 17,3 65 0 0 233 47 1014,2
67 Olivar Alto 05-05-2026 16:30 17,4 65 0 0 233 67 1014
66 Olivar Alto 05-05-2026 16:15 17,6 62 0 0 233 62 1014,2
65 Olivar Alto 05-05-2026 16:00 17,6 61 0 0 233 74 1014,2
64 Olivar Alto 05-05-2026 15:45 17,7 60 0 0 233 67 1014,2
63 Olivar Alto 05-05-2026 15:30 17,9 60 0 0 233 77 1014,3
62 Olivar Alto 05-05-2026 15:15 18,1 59 0 0 233 79 1014,4
61 Olivar Alto 05-05-2026 15:00 18,2 58 0 0 233 109 1014,2
60 Olivar Alto 05-05-2026 14:45 18,2 57 0 0 236 105 1014,1
59 Olivar Alto 05-05-2026 14:30 18,3 58 0 0 240 130 1014,1
58 Olivar Alto 05-05-2026 14:15 18,2 57 0 0 198 135 1014
57 Olivar Alto 05-05-2026 14:00 18,2 57 0 0 189 142 1013,9
56 Olivar Alto 05-05-2026 13:45 18,3 57 0 0 242 160 1014
55 Olivar Alto 05-05-2026 13:30 18,4 57 0 0 243 144 1014
54 Olivar Alto 05-05-2026 13:15 18,4 55 0 0,4 261 160 1013,8
53 Olivar Alto 05-05-2026 13:00 18,5 57 0 0,4 234 190 1013,6
52 Olivar Alto 05-05-2026 12:45 18,3 55 0 0,4 225 225 1013,8
51 Olivar Alto 05-05-2026 12:30 18 58 0 0,4 250 308 1013,9
50 Olivar Alto 05-05-2026 12:15 17,5 59 0 0 226 213 1014
49 Olivar Alto 05-05-2026 12:00 17,2 60 0 0 214 174 1014
48 Olivar Alto 05-05-2026 11:45 16,8 59 0 0,9 236 186 1014
47 Olivar Alto 05-05-2026 11:30 16,4 59 0 2,2 241 267 1014,2
46 Olivar Alto 05-05-2026 11:15 16,3 61 0 0,4 216 193 1014,3
45 Olivar Alto 05-05-2026 11:00 15,9 60 0 0 246 148 1014,2
44 Olivar Alto 05-05-2026 10:45 15,4 62 0 0 255 142 1014,2
43 Olivar Alto 05-05-2026 10:30 14,9 64 0 0,9 302 151 1013,9
42 Olivar Alto 05-05-2026 10:15 14,5 65 0 2,2 352 84 1014
41 Olivar Alto 05-05-2026 10:00 14,2 66 0 1,3 333 104 1014
40 Olivar Alto 05-05-2026 09:45 14,1 66 0 0,4 13 79 1013,7
39 Olivar Alto 05-05-2026 09:30 13,4 67 0 0,9 326 69 1013,7
38 Olivar Alto 05-05-2026 09:15 12,4 73 0 0,4 302 69 1014,2
37 Olivar Alto 05-05-2026 09:00 12,1 74 0 0,4 2 63 1014,5
36 Olivar Alto 05-05-2026 08:45 11,9 74 0 0,4 349 53 1015
35 Olivar Alto 05-05-2026 08:30 11,5 75 0 0,4 340 46 1015,4
34 Olivar Alto 05-05-2026 08:15 10,8 78 0 0,4 21 46 1015,3
33 Olivar Alto 05-05-2026 08:00 10,3 81 0 0 34 19 1015,9
32 Olivar Alto 05-05-2026 07:45 10,1 82 0 1,8 340 7 1016,3
31 Olivar Alto 05-05-2026 07:30 9,8 84 0 0 21 0 1016,5
30 Olivar Alto 05-05-2026 07:15 9,3 88 0 0,9 318 0 1017,4
29 Olivar Alto 05-05-2026 07:00 9,3 89 0 0 19 0 1017,2
28 Olivar Alto 05-05-2026 06:45 9,3 88 0 0 19 0 1017,2
27 Olivar Alto 05-05-2026 06:30 9,4 87 0 0 19 0 1017,2
26 Olivar Alto 05-05-2026 06:15 9,4 87 0 0 19 0 1017,1
25 Olivar Alto 05-05-2026 06:00 9,6 86 0 0 19 0 1016,5
24 Olivar Alto 05-05-2026 05:45 9,6 86 0 0 19 0 1016,4
23 Olivar Alto 05-05-2026 05:30 9,5 87 0 0 19 0 1016
22 Olivar Alto 05-05-2026 05:15 9,4 85 0 0 19 0 1016
21 Olivar Alto 05-05-2026 05:00 9,3 86 0 0 19 0 1015,5
20 Olivar Alto 05-05-2026 04:45 9,3 85 0 0 19 0 1015,2
19 Olivar Alto 05-05-2026 04:30 9,3 85 0 0 19 0 1015,1
18 Olivar Alto 05-05-2026 04:15 9,2 84 0 0 19 0 1015,2
17 Olivar Alto 05-05-2026 04:00 9,2 85 0 0 19 0 1015
16 Olivar Alto 05-05-2026 03:45 9,3 85 0 0 19 0 1015
15 Olivar Alto 05-05-2026 03:30 9,4 84 0 0 19 0 1014,9
14 Olivar Alto 05-05-2026 03:15 9,6 84 0 0 19 0 1015,1
13 Olivar Alto 05-05-2026 03:00 9,6 85 0 0 19 0 1014,8
12 Olivar Alto 05-05-2026 02:45 9,5 84 0 0 18 0 1015,2
11 Olivar Alto 05-05-2026 02:30 9,4 84 0 0 18 0 1015,7
10 Olivar Alto 05-05-2026 02:15 9,5 84 0 0 19 0 1015,5
9 Olivar Alto 05-05-2026 02:00 9,6 83 0 0 19 0 1015,9
8 Olivar Alto 05-05-2026 01:45 9,8 82 0 0 19 0 1016,2
7 Olivar Alto 05-05-2026 01:30 9,7 81 0 0 19 0 1016,2
6 Olivar Alto 05-05-2026 01:15 9,6 81 0 0 19 0 1016,2
5 Olivar Alto 05-05-2026 01:00 9,4 82 0 0 36 0 1016,2
4 Olivar Alto 05-05-2026 00:45 9,1 84 0 0 139 0 1016,1
3 Olivar Alto 05-05-2026 00:30 8,8 85 0 0 140 0 1016,2
2 Olivar Alto 05-05-2026 00:15 8,6 85 0 0 140 0 1016,4
1 Olivar Alto 05-05-2026 00:00 8,6 85 0 0 140 0 1016,4